San Diego, California
Traffic Map
Current Weather Conditions
San Diego, California
Scattered Clouds
Scattered Clouds
24°
Feels Like: 24°
Wind Chill: 24° Ceiling: Unl
Heat Index: 24° Visibility: 10mi
Dew Point: 16° Wind: 10mph
Humidity: 62% Direction: 200° (SSW)
Pressure: 29.91in Gusts: 0mph
Raw Report DataKSAN 312051Z 20009KT 10SM FEW020 SCT250 24/16 A2991 RMK AO2 SLP129 T02390161 56010
Traffic Incident Summary
Active as of:
Severity:
Category:
InformationThere was an issue retrieving the traffic information for this location. Please try a different location or try again shortly.
Advertisements
Track Severe Weather on mobile